Time;durP1;ratioP1;P1;durP2;ratioP2;P2;SDS_P1;SDS_P2;PMS_P1;PMS_P2;Temp;Humidity;BMP_temperature;BMP_pressure;BME280_temperature;BME280_humidity;BME280_pressure;Samples;Min_cycle;Max_cycle;Signal;HPM_P1;HPM_P2
2022/09/04 00:02:44;;;;;;;1.70;1.60;;;16.30;55.80;;;;;;5230440;28;20287;-51
2022/09/04 00:05:21;;;;;;;4.07;1.63;;;16.20;55.90;;;;;;5215463;28;20185;-50
2022/09/04 00:08:13;;;;;;;1.53;1.43;;;16.20;56.10;;;;;;5221796;28;20942;-53
2022/09/04 00:10:55;;;;;;;0.93;0.93;;;16.10;56.80;;;;;;5216918;28;20437;-52
2022/09/04 00:13:32;;;;;;;1.27;1.17;;;16.10;56.40;;;;;;5233901;28;20899;-50
2022/09/04 00:16:19;;;;;;;2.33;1.03;;;16.10;56.60;;;;;;5217902;28;20805;-51
2022/09/04 00:19:01;;;;;;;2.10;1.27;;;16.10;56.70;;;;;;5218743;28;20842;-49
2022/09/04 00:21:55;;;;;;;1.90;1.80;;;16.00;56.90;;;;;;5217533;28;20465;-51
2022/09/04 00:24:38;;;;;;;5.83;1.50;;;15.90;57.00;;;;;;5214888;28;20438;-50
2022/09/04 00:27:18;;;;;;;1.83;1.47;;;15.90;57.20;;;;;;5215627;28;20562;-52
2022/09/04 00:30:07;;;;;;;1.07;1.07;;;15.80;57.50;;;;;;5218750;28;20955;-52
2022/09/04 00:32:48;;;;;;;1.67;1.03;;;15.80;57.50;;;;;;5223231;28;20433;-51
2022/09/04 00:35:25;;;;;;;1.67;1.33;;;15.80;57.70;;;;;;5221642;28;20548;-51
2022/09/04 00:38:04;;;;;;;1.27;1.17;;;15.80;57.80;;;;;;5213969;28;20467;-51
2022/09/04 00:40:54;;;;;;;8.70;1.87;;;15.80;57.80;;;;;;5221761;28;20569;-52
2022/09/04 00:43:46;;;;;;;3.30;1.27;;;15.70;57.90;;;;;;5223358;28;20448;-51
2022/09/04 00:46:52;;;;;;;1.60;1.50;;;15.70;58.10;;;;;;5212974;28;20552;-48
2022/09/04 00:49:56;;;;;;;1.30;1.20;;;15.60;58.30;;;;;;5216568;28;20465;-49
2022/09/04 00:52:42;;;;;;;1.60;1.37;;;15.60;58.40;;;;;;5217866;28;20438;-47
2022/09/04 00:55:34;;;;;;;1.00;1.00;;;15.60;58.40;;;;;;5226130;28;20444;-49
2022/09/04 00:58:51;;;;;;;1.20;1.20;;;15.60;58.40;;;;;;5219506;28;20445;-51
2022/09/04 01:01:24;;;;;;;0.90;0.90;;;15.50;58.50;;;;;;5202915;28;20931;-52
2022/09/04 01:04:04;;;;;;;2.23;1.00;;;15.50;58.70;;;;;;5222629;28;20445;-49
2022/09/04 01:06:56;;;;;;;8.20;1.40;;;15.50;58.90;;;;;;5217298;28;20979;-51
2022/09/04 01:10:07;;;;;;;1.83;1.70;;;15.40;58.90;;;;;;5221012;28;20454;-50
2022/09/04 01:12:50;;;;;;;0.67;0.67;;;15.40;58.90;;;;;;5208236;28;20444;-51
2022/09/04 01:15:40;;;;;;;6.27;1.20;;;15.40;58.90;;;;;;5221485;28;20453;-49
2022/09/04 01:18:18;;;;;;;4.00;1.17;;;15.50;59.00;;;;;;5217749;28;20445;-51
2022/09/04 01:20:59;;;;;;;0.90;0.90;;;15.50;59.00;;;;;;5220806;28;20447;-48
2022/09/04 01:23:54;;;;;;;1.17;1.07;;;15.50;59.00;;;;;;5213712;28;20433;-49
2022/09/04 01:26:53;;;;;;;1.13;1.03;;;15.50;59.00;;;;;;5221483;28;20514;-51
2022/09/04 01:29:41;;;;;;;2.27;1.13;;;15.50;59.00;;;;;;5217335;28;20442;-49
2022/09/04 01:32:20;;;;;;;3.33;1.40;;;15.50;58.90;;;;;;5216168;28;20914;-47
2022/09/04 01:35:10;;;;;;;1.00;1.00;;;15.40;59.00;;;;;;5222284;28;20926;-50
2022/09/04 01:37:48;;;;;;;0.67;0.67;;;15.40;58.90;;;;;;5217785;28;20429;-53
2022/09/04 01:40:25;;;;;;;1.00;1.00;;;15.40;58.90;;;;;;5218032;28;20428;-52
2022/09/04 01:43:17;;;;;;;1.30;1.13;;;15.40;59.10;;;;;;5212794;28;20461;-50
2022/09/04 01:46:08;;;;;;;1.20;1.10;;;15.40;59.10;;;;;;5218267;28;20453;-49
2022/09/04 01:48:44;;;;;;;2.97;1.00;;;15.40;59.10;;;;;;5209613;28;20437;-50
2022/09/04 01:51:24;;;;;;;9.00;1.80;;;15.30;59.10;;;;;;5236251;28;20436;-50
2022/09/04 01:54:07;;;;;;;1.50;1.33;;;15.30;59.10;;;;;;5216221;28;20445;-48
2022/09/04 01:56:47;;;;;;;4.10;1.30;;;15.30;59.10;;;;;;5219144;28;20468;-49
2022/09/04 01:59:23;;;;;;;0.90;0.90;;;15.20;59.10;;;;;;5232572;28;20461;-50
2022/09/04 02:02:27;;;;;;;1.00;1.00;;;15.20;59.20;;;;;;5235110;28;20465;-52
2022/09/04 02:05:18;;;;;;;1.33;1.20;;;15.20;59.10;;;;;;5198310;28;20469;-51
2022/09/04 02:07:55;;;;;;;1.33;1.20;;;15.20;59.30;;;;;;5220204;28;20833;-50
2022/09/04 02:10:43;;;;;;;0.70;0.70;;;15.10;59.40;;;;;;5220093;28;20433;-51
2022/09/04 02:13:39;;;;;;;2.00;1.47;;;15.10;59.60;;;;;;5215030;28;20971;-50
2022/09/04 02:16:32;;;;;;;0.87;0.87;;;15.00;59.60;;;;;;5222514;28;20592;-50
2022/09/04 02:19:40;;;;;;;1.53;0.83;;;15.00;59.70;;;;;;5217124;28;20477;-49
2022/09/04 02:22:29;;;;;;;3.70;1.00;;;14.90;59.70;;;;;;5217517;28;20469;-52
2022/09/04 02:25:19;;;;;;;0.80;0.80;;;14.90;59.90;;;;;;5222232;28;20437;-49
2022/09/04 02:28:17;;;;;;;3.63;1.30;;;14.90;60.10;;;;;;5216359;28;20871;-50
2022/09/04 02:31:14;;;;;;;1.47;1.37;;;14.80;60.00;;;;;;5222618;28;20433;-50
2022/09/04 02:33:59;;;;;;;1.63;1.40;;;14.80;60.20;;;;;;5233682;28;20437;-50
2022/09/04 02:36:40;;;;;;;1.00;1.00;;;14.70;60.40;;;;;;5217297;28;20448;-49
2022/09/04 02:39:16;;;;;;;1.23;1.17;;;14.70;60.50;;;;;;5223464;28;20516;-48
2022/09/04 02:41:49;;;;;;;6.83;1.50;;;14.70;60.60;;;;;;5221805;28;20460;-50
2022/09/04 02:44:32;;;;;;;0.93;0.93;;;14.70;60.60;;;;;;5218387;28;20520;-52
2022/09/04 02:47:40;;;;;;;0.80;0.80;;;14.70;60.60;;;;;;5220126;28;20453;-50
2022/09/04 02:50:28;;;;;;;2.43;1.30;;;14.70;60.70;;;;;;5214397;28;20512;-51
2022/09/04 02:53:36;;;;;;;5.13;1.33;;;14.70;61.00;;;;;;5220999;28;20476;-48
2022/09/04 02:56:57;;;;;;;1.40;1.30;;;14.70;61.00;;;;;;5221402;28;20545;-52
2022/09/04 02:59:36;;;;;;;1.27;1.17;;;14.60;61.00;;;;;;5175307;28;20898;-49
2022/09/04 03:02:39;;;;;;;1.00;1.00;;;14.70;61.00;;;;;;5220338;28;20500;-51
2022/09/04 03:05:20;;;;;;;1.07;1.00;;;14.60;61.20;;;;;;5221224;28;20499;-49
2022/09/04 03:07:56;;;;;;;2.30;0.90;;;14.60;61.40;;;;;;5222543;28;20933;-53
2022/09/04 03:10:37;;;;;;;1.43;0.97;;;14.60;61.40;;;;;;5222683;28;20424;-50
2022/09/04 03:13:30;;;;;;;1.40;0.90;;;14.50;61.30;;;;;;5216106;28;20433;-50
2022/09/04 03:16:40;;;;;;;1.07;0.90;;;14.50;61.60;;;;;;5215968;28;20472;-52
2022/09/04 03:19:37;;;;;;;1.10;1.10;;;14.40;61.80;;;;;;5187468;28;20470;-52
2022/09/04 03:22:33;;;;;;;1.00;1.00;;;14.40;62.00;;;;;;5206523;28;20461;-51
2022/09/04 03:25:08;;;;;;;0.80;0.80;;;14.40;62.30;;;;;;5218841;28;20465;-49
2022/09/04 03:27:39;;;;;;;1.10;0.90;;;14.30;62.30;;;;;;5219285;28;20438;-50
2022/09/04 03:30:12;;;;;;;1.03;0.90;;;14.30;62.60;;;;;;5229245;28;20792;-50
2022/09/04 03:33:06;;;;;;;3.20;1.10;;;14.20;62.90;;;;;;5243195;28;20487;-52
2022/09/04 03:35:41;;;;;;;1.20;1.10;;;14.20;62.80;;;;;;5216356;28;20522;-53
2022/09/04 03:38:14;;;;;;;1.13;1.13;;;14.10;63.00;;;;;;5207913;28;20996;-52
2022/09/04 03:41:15;;;;;;;1.53;1.43;;;14.10;63.20;;;;;;5220701;28;20526;-50
2022/09/04 03:43:54;;;;;;;2.53;0.90;;;14.10;63.30;;;;;;5221299;28;20422;-52
2022/09/04 03:46:42;;;;;;;2.80;1.03;;;14.00;63.50;;;;;;5221480;28;20534;-50
2022/09/04 03:49:13;;;;;;;5.80;1.10;;;14.00;63.70;;;;;;5231910;28;20907;-49
2022/09/04 03:52:04;;;;;;;1.03;1.03;;;13.90;63.80;;;;;;5219906;28;20438;-50
2022/09/04 03:54:58;;;;;;;7.30;0.80;;;14.00;64.00;;;;;;5220295;28;20179;-50
2022/09/04 03:57:59;;;;;;;2.20;1.20;;;13.90;64.10;;;;;;5216471;28;20450;-49
2022/09/04 04:00:44;;;;;;;2.10;1.27;;;13.90;64.40;;;;;;5217514;28;20440;-50
2022/09/04 04:03:45;;;;;;;1.70;1.27;;;13.80;64.80;;;;;;5222262;28;20450;-48
2022/09/04 04:06:37;;;;;;;5.50;0.90;;;13.80;65.30;;;;;;5234940;28;20751;-47
2022/09/04 04:09:20;;;;;;;3.13;1.00;;;13.70;65.60;;;;;;5229446;28;20444;-48
2022/09/04 04:12:34;;;;;;;6.27;1.43;;;13.70;65.90;;;;;;5222299;28;20491;-48
2022/09/04 04:15:26;;;;;;;1.87;0.93;;;13.60;66.40;;;;;;5219857;28;20433;-48
2022/09/04 04:18:22;;;;;;;1.97;1.20;;;13.60;66.90;;;;;;5233057;28;20473;-50
2022/09/04 04:21:12;;;;;;;0.90;0.90;;;13.50;67.20;;;;;;5220284;28;20438;-47
2022/09/04 04:24:19;;;;;;;0.80;0.80;;;13.50;67.20;;;;;;5223162;28;20433;-48
2022/09/04 04:27:16;;;;;;;0.83;0.83;;;13.50;67.40;;;;;;5235906;28;20449;-49
2022/09/04 04:30:02;;;;;;;0.93;0.93;;;13.40;67.90;;;;;;5218361;28;20528;-49
2022/09/04 04:33:08;;;;;;;3.50;1.07;;;13.40;68.00;;;;;;5220896;28;20433;-48
2022/09/04 04:36:00;;;;;;;1.90;0.90;;;13.40;68.50;;;;;;5243379;28;20476;-48
2022/09/04 04:38:33;;;;;;;0.97;0.93;;;13.40;68.70;;;;;;5220214;28;20436;-47
2022/09/04 04:41:23;;;;;;;1.17;0.93;;;13.40;69.00;;;;;;5220568;28;20461;-48
2022/09/04 04:44:11;;;;;;;1.40;1.40;;;13.30;69.30;;;;;;5230561;28;20440;-48
2022/09/04 04:46:59;;;;;;;1.00;0.90;;;13.40;69.40;;;;;;5213302;28;20583;-48
2022/09/04 04:49:53;;;;;;;1.87;1.07;;;13.40;69.40;;;;;;5213111;28;20434;-47
2022/09/04 04:52:35;;;;;;;1.27;0.90;;;13.40;69.60;;;;;;5218380;28;20433;-49
2022/09/04 04:55:15;;;;;;;1.10;0.93;;;13.40;70.40;;;;;;5220280;28;20442;-49
2022/09/04 04:58:04;;;;;;;1.73;1.17;;;13.40;69.80;;;;;;5234753;28;20457;-49
2022/09/04 05:00:51;;;;;;;3.20;1.30;;;13.40;70.00;;;;;;5217188;28;20445;-48
2022/09/04 05:03:33;;;;;;;2.53;1.10;;;13.40;70.00;;;;;;5206738;28;20529;-49
2022/09/04 05:06:36;;;;;;;1.27;0.90;;;13.50;70.00;;;;;;5221291;28;20556;-47
2022/09/04 05:09:15;;;;;;;2.10;0.87;;;13.90;69.00;;;;;;5213477;28;20484;-48
2022/09/04 05:11:58;;;;;;;1.10;1.10;;;14.30;67.60;;;;;;5222625;28;20436;-48
2022/09/04 05:14:46;;;;;;;1.20;1.10;;;14.70;65.70;;;;;;5221881;28;20562;-47
2022/09/04 05:17:32;;;;;;;1.27;1.20;;;14.70;65.10;;;;;;5220515;28;20497;-47
2022/09/04 05:20:27;;;;;;;1.00;1.00;;;14.70;64.50;;;;;;5220206;28;20449;-48
2022/09/04 05:23:26;;;;;;;1.63;0.87;;;14.60;64.60;;;;;;5217119;28;20456;-49
2022/09/04 05:26:10;;;;;;;1.10;1.07;;;14.40;65.10;;;;;;5220764;28;20458;-48
2022/09/04 05:28:53;;;;;;;1.50;1.00;;;14.30;65.80;;;;;;5223482;28;20913;-49
2022/09/04 05:31:53;;;;;;;1.43;0.90;;;14.20;66.40;;;;;;5221032;28;20432;-49
2022/09/04 05:34:58;;;;;;;0.97;0.97;;;14.10;66.90;;;;;;5215525;28;20882;-48
2022/09/04 05:37:44;;;;;;;0.70;0.70;;;14.10;67.10;;;;;;5222528;28;20937;-49
2022/09/04 05:40:40;;;;;;;0.90;0.90;;;14.10;66.60;;;;;;5221978;28;20453;-49
2022/09/04 05:43:37;;;;;;;1.43;1.00;;;14.20;67.10;;;;;;5217031;28;20477;-50
2022/09/04 05:46:17;;;;;;;1.27;1.27;;;14.20;66.70;;;;;;5221890;28;20457;-49
2022/09/04 05:49:01;;;;;;;1.80;1.10;;;14.30;66.90;;;;;;5222541;28;20433;-48
2022/09/04 05:51:50;;;;;;;1.00;0.80;;;14.40;66.70;;;;;;5235276;28;20445;-50
2022/09/04 05:54:49;;;;;;;0.87;0.87;;;15.30;64.90;;;;;;5240684;28;20442;-49
2022/09/04 05:57:40;;;;;;;1.30;1.20;;;18.00;57.90;;;;;;5221116;28;20522;-49
2022/09/04 06:00:13;;;;;;;0.97;0.97;;;20.20;52.80;;;;;;5225158;28;20560;-48
2022/09/04 06:03:07;;;;;;;0.90;0.90;;;21.70;48.70;;;;;;5219583;28;20461;-49
2022/09/04 06:05:57;;;;;;;0.77;0.77;;;22.80;46.40;;;;;;5214485;28;20461;-49
2022/09/04 06:09:09;;;;;;;1.30;1.20;;;23.40;43.90;;;;;;5241385;28;20433;-49
2022/09/04 06:11:56;;;;;;;2.50;1.10;;;23.90;43.00;;;;;;5213267;28;20434;-49
2022/09/04 06:14:57;;;;;;;1.63;1.27;;;24.00;42.00;;;;;;5222712;28;20445;-48
2022/09/04 06:17:37;;;;;;;1.00;1.00;;;24.00;41.60;;;;;;5222825;28;20743;-49
2022/09/04 06:20:32;;;;;;;2.00;1.60;;;23.90;41.90;;;;;;5219272;28;20432;-48
2022/09/04 06:23:34;;;;;;;1.93;1.53;;;24.30;40.90;;;;;;5216290;28;20468;-48
2022/09/04 06:26:10;;;;;;;1.17;1.10;;;24.30;41.20;;;;;;5217374;28;20518;-49
2022/09/04 06:29:00;;;;;;;3.00;1.40;;;24.60;40.80;;;;;;5217795;28;20451;-49
2022/09/04 06:32:03;;;;;;;1.80;1.70;;;24.40;39.90;;;;;;5217748;28;20426;-50
2022/09/04 06:34:58;;;;;;;1.60;1.50;;;23.20;41.60;;;;;;5219303;28;20654;-49
2022/09/04 06:37:32;;;;;;;1.43;1.30;;;21.90;43.50;;;;;;5219915;28;20434;-46
2022/09/04 06:40:09;;;;;;;2.87;1.53;;;20.40;46.30;;;;;;5223907;28;20444;-49
2022/09/04 06:43:11;;;;;;;6.10;1.50;;;19.80;48.50;;;;;;5226485;28;20507;-49
2022/09/04 06:46:06;;;;;;;1.50;1.37;;;19.70;49.20;;;;;;5223195;28;20476;-48
2022/09/04 06:48:59;;;;;;;1.10;1.10;;;19.40;49.70;;;;;;5221705;28;20426;-52
2022/09/04 06:52:13;;;;;;;1.60;1.60;;;20.20;49.50;;;;;;5220027;28;20522;-48
2022/09/04 06:54:57;;;;;;;1.30;1.20;;;22.40;46.00;;;;;;5225156;28;20480;-47
2022/09/04 06:58:04;;;;;;;1.40;1.40;;;23.80;43.40;;;;;;5231650;28;20457;-49
2022/09/04 07:01:06;;;;;;;4.70;1.90;;;24.50;42.00;;;;;;5221592;28;20524;-48
2022/09/04 07:04:08;;;;;;;1.97;1.87;;;25.10;40.70;;;;;;5218665;28;20449;-50
2022/09/04 07:07:04;;;;;;;1.53;1.40;;;25.90;39.80;;;;;;5240883;28;20582;-47
2022/09/04 07:09:40;;;;;;;2.20;2.03;;;26.10;38.60;;;;;;5227680;28;20502;-47
2022/09/04 07:12:23;;;;;;;1.57;1.50;;;25.70;39.00;;;;;;5213061;28;20439;-49
2022/09/04 07:15:28;;;;;;;1.80;1.70;;;26.20;39.10;;;;;;5212082;28;20430;-48
2022/09/04 07:18:24;;;;;;;3.43;1.93;;;27.20;37.60;;;;;;5218741;28;20429;-48
2022/09/04 07:21:02;;;;;;;3.10;2.00;;;27.30;37.00;;;;;;5205676;28;20448;-48
2022/09/04 07:23:49;;;;;;;1.70;1.60;;;27.60;36.80;;;;;;5224916;28;20598;-47
2022/09/04 07:26:49;;;;;;;3.43;1.80;;;27.40;36.50;;;;;;5222735;28;20481;-47
2022/09/04 07:29:38;;;;;;;2.33;2.00;;;26.80;36.90;;;;;;5216548;28;20499;-51
2022/09/04 07:32:29;;;;;;;3.97;1.63;;;26.80;37.90;;;;;;5223124;28;20444;-47
2022/09/04 07:35:22;;;;;;;3.00;2.30;;;26.90;37.40;;;;;;5221372;28;20524;-47
2022/09/04 07:37:57;;;;;;;1.63;1.53;;;26.50;38.70;;;;;;5213708;28;20448;-47
2022/09/04 07:40:46;;;;;;;2.30;1.40;;;26.70;38.10;;;;;;5210763;28;20509;-50
2022/09/04 07:43:22;;;;;;;4.10;2.53;;;26.40;38.40;;;;;;5221441;28;20464;-48
2022/09/04 07:46:32;;;;;;;1.93;1.70;;;26.70;38.80;;;;;;5237151;28;20456;-47
2022/09/04 07:49:11;;;;;;;2.00;1.53;;;27.50;38.20;;;;;;5161094;28;20440;-48
2022/09/04 07:51:58;;;;;;;3.60;2.20;;;28.10;36.90;;;;;;5163887;28;20448;-49
2022/09/04 07:54:36;;;;;;;1.93;1.83;;;28.30;36.20;;;;;;5203739;28;20935;-49
2022/09/04 07:57:35;;;;;;;2.40;2.03;;;28.80;36.10;;;;;;5219728;28;20844;-49
2022/09/04 08:00:17;;;;;;;5.80;1.73;;;28.80;35.50;;;;;;5216866;28;20442;-49
2022/09/04 08:03:03;;;;;;;2.30;2.10;;;29.10;35.60;;;;;;5220040;28;20485;-50
2022/09/04 08:05:51;;;;;;;1.80;1.70;;;28.80;35.30;;;;;;5222531;28;20459;-47
2022/09/04 08:08:47;;;;;;;1.60;1.60;;;27.30;37.50;;;;;;5215876;28;20425;-48
2022/09/04 08:11:24;;;;;;;2.30;2.20;;;26.30;39.90;;;;;;5220756;28;20774;-48
2022/09/04 08:14:19;;;;;;;2.90;2.40;;;25.70;40.90;;;;;;5220663;28;20497;-49
2022/09/04 08:17:19;;;;;;;1.83;1.73;;;26.50;40.20;;;;;;5215442;28;20472;-47
2022/09/04 08:20:10;;;;;;;1.93;1.83;;;26.80;40.00;;;;;;5217642;28;20441;-49
2022/09/04 08:23:06;;;;;;;2.87;2.30;;;25.60;41.40;;;;;;5236351;28;20467;-48
2022/09/04 08:25:58;;;;;;;2.80;2.00;;;24.20;44.20;;;;;;5221022;28;20934;-50
2022/09/04 08:28:32;;;;;;;2.20;2.10;;;23.90;45.50;;;;;;5213856;28;20879;-47
2022/09/04 08:31:17;;;;;;;1.90;1.80;;;23.70;46.20;;;;;;5225343;28;20804;-51
2022/09/04 08:33:58;;;;;;;9.73;2.40;;;23.80;46.50;;;;;;5221606;28;20988;-49
2022/09/04 08:36:55;;;;;;;3.70;2.80;;;23.40;47.10;;;;;;5220554;28;20457;-48
2022/09/04 08:40:10;;;;;;;2.13;2.03;;;22.70;47.60;;;;;;5220014;28;20479;-48
2022/09/04 08:43:19;;;;;;;2.70;2.30;;;22.40;48.40;;;;;;5221303;28;20465;-50
2022/09/04 08:46:12;;;;;;;2.90;2.70;;;21.90;49.10;;;;;;5219174;28;20465;-49
2022/09/04 08:49:10;;;;;;;2.10;2.00;;;21.30;50.20;;;;;;5237559;28;20440;-48
2022/09/04 08:52:02;;;;;;;2.33;2.13;;;20.90;51.30;;;;;;5214132;28;21906;-49
2022/09/04 08:55:26;;;;;;;2.00;1.90;;;20.60;52.10;;;;;;5220020;28;20440;-48
2022/09/04 08:58:03;;;;;;;3.63;2.13;;;20.40;52.80;;;;;;5156496;28;20452;-49
2022/09/04 09:00:53;;;;;;;2.20;2.00;;;20.40;52.90;;;;;;5218496;28;20503;-49
2022/09/04 09:03:42;;;;;;;1.90;1.80;;;20.20;53.40;;;;;;5220910;28;20429;-50
2022/09/04 09:06:40;;;;;;;2.30;2.20;;;20.30;53.40;;;;;;5217403;28;20464;-48
2022/09/04 09:09:29;;;;;;;2.90;2.10;;;20.20;53.60;;;;;;5215269;28;20449;-50
2022/09/04 09:12:08;;;;;;;6.10;2.23;;;20.30;53.60;;;;;;5219281;28;22550;-48
2022/09/04 09:14:39;;;;;;;1.97;1.87;;;20.20;54.10;;;;;;5218833;28;20436;-51
2022/09/04 09:17:11;;;;;;;1.77;1.77;;;20.30;54.00;;;;;;5221431;28;20479;-49
2022/09/04 09:20:09;;;;;;;2.10;2.00;;;20.40;53.60;;;;;;5212625;28;20183;-48
2022/09/04 09:23:01;;;;;;;2.03;1.83;;;20.50;53.20;;;;;;5214868;28;20496;-49
2022/09/04 09:25:51;;;;;;;1.80;1.70;;;20.60;53.00;;;;;;5220639;28;20610;-47
2022/09/04 09:29:00;;;;;;;3.17;2.97;;;20.60;53.10;;;;;;5218700;28;20981;-49
2022/09/04 09:32:02;;;;;;;4.20;1.90;;;20.80;53.20;;;;;;5215869;28;20441;-50
2022/09/04 09:35:11;;;;;;;2.60;1.87;;;21.00;52.50;;;;;;5220736;28;20436;-51
2022/09/04 09:38:22;;;;;;;1.70;1.70;;;21.10;52.50;;;;;;5199539;28;20787;-48
2022/09/04 09:41:18;;;;;;;1.60;1.50;;;21.10;52.10;;;;;;5215025;28;20528;-50
2022/09/04 09:44:11;;;;;;;1.70;1.63;;;21.10;51.70;;;;;;5213731;28;20429;-50
2022/09/04 09:47:11;;;;;;;2.63;1.60;;;21.10;51.40;;;;;;5218145;28;20457;-47
2022/09/04 09:49:51;;;;;;;2.40;1.83;;;21.10;51.80;;;;;;5214804;28;20449;-50
2022/09/04 09:52:41;;;;;;;4.13;1.83;;;21.00;52.10;;;;;;5235811;28;20429;-49
2022/09/04 09:58:07;;;;;;;1.00;1.00;;;21.00;52.00;;;;;;5242341;22;20576;-50
2022/09/04 10:00:45;;;;;;;1.53;1.53;;;21.00;51.60;;;;;;5219499;28;20277;-49
2022/09/04 10:03:54;;;;;;;1.50;1.50;;;21.20;52.10;;;;;;5218258;28;20544;-49
2022/09/04 10:06:50;;;;;;;1.60;1.60;;;21.20;51.80;;;;;;5216788;28;20650;-51
2022/09/04 10:09:33;;;;;;;2.93;1.90;;;21.30;51.80;;;;;;5195699;28;20845;-51
2022/09/04 10:12:50;;;;;;;5.43;1.67;;;21.20;51.30;;;;;;5196924;28;20495;-49
2022/09/04 10:15:58;;;;;;;1.97;1.87;;;21.20;51.60;;;;;;5197938;28;20427;-50
2022/09/04 10:18:32;;;;;;;1.80;1.80;;;21.30;51.80;;;;;;5198129;28;20478;-50
2022/09/04 10:21:44;;;;;;;2.33;2.10;;;21.30;51.00;;;;;;5201595;28;20446;-49
2022/09/04 10:24:31;;;;;;;2.10;1.63;;;21.30;51.70;;;;;;5195286;28;20481;-51
2022/09/04 10:27:21;;;;;;;1.60;1.60;;;21.60;51.70;;;;;;5209849;28;21000;-49
2022/09/04 10:30:07;;;;;;;1.70;1.60;;;21.70;51.50;;;;;;5194315;28;21459;-51
2022/09/04 10:33:03;;;;;;;1.90;1.80;;;21.70;50.70;;;;;;5196971;28;20556;-50
2022/09/04 10:35:51;;;;;;;1.70;1.70;;;21.70;51.10;;;;;;5189705;28;20458;-48
2022/09/04 10:42:10;;;;;;;2.43;2.23;;;21.50;51.20;;;;;;5195901;28;20482;-51
2022/09/04 10:44:46;;;;;;;1.87;1.77;;;21.60;50.80;;;;;;5190931;28;20997;-49
2022/09/04 10:47:42;;;;;;;2.17;2.00;;;21.60;50.60;;;;;;5202107;28;20476;-49
2022/09/04 10:50:34;;;;;;;1.80;1.80;;;21.80;51.00;;;;;;5203490;28;20438;-49
2022/09/04 10:53:04;;;;;;;2.13;1.87;;;21.90;49.70;;;;;;5200177;28;20886;-49
2022/09/04 10:55:56;;;;;;;1.97;1.87;;;22.00;49.40;;;;;;5202865;28;20588;-48
2022/09/04 10:58:56;;;;;;;1.67;1.57;;;21.90;49.40;;;;;;5199707;28;20176;-53
2022/09/04 11:01:43;;;;;;;3.30;1.97;;;22.00;50.00;;;;;;5199565;28;20486;-53
2022/09/04 11:04:26;;;;;;;2.13;1.93;;;22.00;49.80;;;;;;5218939;28;20433;-51
2022/09/04 11:07:16;;;;;;;2.00;1.53;;;22.20;49.80;;;;;;5188186;28;20533;-49
2022/09/04 11:10:15;;;;;;;1.70;1.67;;;22.30;48.90;;;;;;5196136;28;20806;-50
2022/09/04 11:12:48;;;;;;;2.17;2.07;;;22.40;49.20;;;;;;5209455;28;20442;-48
2022/09/04 11:15:42;;;;;;;1.90;1.80;;;22.40;49.00;;;;;;5220363;28;20474;-48
2022/09/04 11:18:36;;;;;;;1.30;1.30;;;22.30;49.00;;;;;;5219943;28;20434;-49
2022/09/04 11:21:20;;;;;;;2.10;2.00;;;22.30;49.20;;;;;;5203832;28;20816;-49
2022/09/04 11:24:19;;;;;;;1.93;1.83;;;22.40;49.70;;;;;;5200516;28;20430;-49
2022/09/04 11:27:08;;;;;;;2.20;1.87;;;22.40;49.60;;;;;;5195494;28;20459;-50
2022/09/04 11:30:06;;;;;;;1.33;1.33;;;22.40;49.50;;;;;;5214014;28;20432;-48
2022/09/04 11:32:56;;;;;;;1.43;1.33;;;22.40;49.30;;;;;;5206888;28;20430;-48
2022/09/04 11:35:51;;;;;;;1.37;1.37;;;22.40;49.70;;;;;;5206805;28;20599;-49
2022/09/04 11:38:46;;;;;;;2.33;2.23;;;22.30;49.90;;;;;;5206305;28;20992;-49
2022/09/04 11:41:47;;;;;;;1.60;1.60;;;22.40;49.50;;;;;;5218325;28;20522;-49
2022/09/04 11:44:51;;;;;;;1.80;1.70;;;22.40;49.30;;;;;;5205053;28;20805;-49
2022/09/04 11:47:28;;;;;;;1.60;1.60;;;22.60;49.50;;;;;;5220438;28;20450;-48
2022/09/04 11:50:34;;;;;;;1.63;1.53;;;22.60;49.00;;;;;;5221110;28;21480;-54
2022/09/04 11:53:42;;;;;;;2.40;2.20;;;22.60;48.40;;;;;;5141536;28;20941;-52
2022/09/04 11:56:27;;;;;;;2.30;2.20;;;22.60;48.70;;;;;;5199360;28;21331;-50
2022/09/04 11:59:35;;;;;;;1.90;1.80;;;22.60;48.80;;;;;;5193183;28;20477;-50
2022/09/04 12:02:37;;;;;;;1.90;1.80;;;22.70;48.50;;;;;;5195541;28;20461;-51
2022/09/04 12:05:41;;;;;;;1.80;1.80;;;22.80;48.70;;;;;;5176837;28;20807;-49
2022/09/04 12:08:34;;;;;;;2.10;2.00;;;22.80;48.50;;;;;;5200878;28;20422;-50
2022/09/04 12:11:30;;;;;;;2.33;1.90;;;22.70;48.50;;;;;;5188281;28;20486;-50
2022/09/04 12:14:23;;;;;;;2.10;1.90;;;22.80;48.60;;;;;;5199921;28;20574;-51
2022/09/04 12:17:02;;;;;;;2.20;1.60;;;22.90;48.20;;;;;;5203325;28;20873;-49
2022/09/04 12:19:57;;;;;;;2.07;1.70;;;22.80;48.20;;;;;;5203524;28;20457;-49
2022/09/04 12:22:49;;;;;;;2.00;1.90;;;22.80;48.70;;;;;;5206560;28;20498;-49
2022/09/04 12:25:41;;;;;;;2.00;1.97;;;22.90;49.20;;;;;;5199798;28;21017;-49
2022/09/04 12:28:32;;;;;;;2.30;2.20;;;22.90;48.40;;;;;;5174350;28;21273;-49
2022/09/04 12:31:09;;;;;;;2.50;2.20;;;23.00;48.40;;;;;;5203568;28;20432;-50
2022/09/04 12:34:09;;;;;;;2.83;1.90;;;22.80;48.30;;;;;;5197876;28;20485;-48
2022/09/04 12:37:06;;;;;;;2.00;1.90;;;22.80;48.60;;;;;;5202028;28;20454;-50
2022/09/04 12:40:18;;;;;;;5.53;2.27;;;22.70;48.90;;;;;;5200223;28;20450;-48
2022/09/04 12:43:08;;;;;;;3.93;2.17;;;22.70;48.30;;;;;;5169573;28;20540;-48
2022/09/04 12:45:51;;;;;;;1.73;1.63;;;22.60;48.60;;;;;;5201674;28;20469;-50
2022/09/04 12:48:34;;;;;;;1.97;1.87;;;22.60;48.70;;;;;;5204707;28;20437;-49
2022/09/04 12:51:23;;;;;;;2.07;1.97;;;22.70;48.70;;;;;;5201941;28;20434;-49
2022/09/04 12:54:02;;;;;;;1.70;1.60;;;23.00;48.50;;;;;;5199721;28;20443;-50
2022/09/04 12:56:48;;;;;;;3.07;2.80;;;23.00;47.40;;;;;;5199540;28;20470;-50
2022/09/04 12:59:59;;;;;;;6.70;1.83;;;23.10;47.70;;;;;;5216312;28;20438;-49
2022/09/04 13:02:45;;;;;;;3.03;1.70;;;23.30;47.00;;;;;;5180526;28;20494;-50
2022/09/04 13:05:47;;;;;;;1.90;1.40;;;23.20;46.80;;;;;;5200360;28;20438;-50
2022/09/04 13:08:32;;;;;;;2.43;1.37;;;23.10;46.60;;;;;;5198091;28;20442;-49
2022/09/04 13:11:42;;;;;;;1.70;1.60;;;23.00;46.40;;;;;;5201247;28;20437;-50
2022/09/04 13:14:49;;;;;;;4.87;1.90;;;23.10;46.30;;;;;;5180633;28;20446;-50
2022/09/04 13:17:42;;;;;;;6.37;2.70;;;23.30;45.80;;;;;;5210196;28;20457;-48
2022/09/04 13:20:26;;;;;;;2.00;1.90;;;23.40;45.70;;;;;;5198925;28;20982;-51
2022/09/04 13:23:24;;;;;;;1.70;1.50;;;23.50;45.00;;;;;;5204198;28;20502;-50
2022/09/04 13:26:00;;;;;;;7.40;1.73;;;23.50;45.00;;;;;;5223066;28;20453;-52
2022/09/04 13:28:51;;;;;;;2.00;1.50;;;23.40;44.50;;;;;;5200914;28;20840;-53
2022/09/04 13:31:54;;;;;;;2.30;1.80;;;23.40;44.40;;;;;;5197695;28;20800;-49
2022/09/04 13:34:36;;;;;;;2.47;1.47;;;23.40;43.80;;;;;;5216556;28;20515;-50
2022/09/04 13:37:20;;;;;;;1.60;1.60;;;23.40;43.90;;;;;;5198592;28;20458;-49
2022/09/04 13:39:59;;;;;;;1.50;1.50;;;23.60;43.80;;;;;;5201845;28;20860;-49
2022/09/04 13:42:43;;;;;;;5.23;1.87;;;23.70;43.50;;;;;;5211114;28;20466;-51
2022/09/04 13:45:27;;;;;;;2.13;1.87;;;23.80;42.90;;;;;;5203033;28;20480;-49
2022/09/04 13:48:06;;;;;;;2.87;1.80;;;24.00;42.40;;;;;;5202327;28;20488;-50
2022/09/04 13:50:44;;;;;;;5.43;1.90;;;24.10;42.20;;;;;;5196579;28;20435;-50
2022/09/04 13:53:22;;;;;;;1.80;1.70;;;24.30;42.30;;;;;;5191407;28;20437;-51
2022/09/04 13:56:05;;;;;;;3.77;1.90;;;24.50;41.60;;;;;;5204238;28;20466;-47
2022/09/04 13:58:50;;;;;;;1.73;1.63;;;24.50;41.30;;;;;;5201217;28;20472;-48
2022/09/04 14:01:28;;;;;;;4.30;1.83;;;24.30;40.80;;;;;;5196016;28;20802;-49
2022/09/04 14:04:06;;;;;;;1.73;1.63;;;24.10;41.30;;;;;;5198451;28;20438;-50
2022/09/04 14:06:37;;;;;;;1.30;1.30;;;23.80;41.40;;;;;;5180789;28;20481;-49
2022/09/04 14:09:08;;;;;;;4.93;2.17;;;23.70;41.60;;;;;;5203175;28;20518;-49
2022/09/04 14:12:08;;;;;;;2.30;1.33;;;23.70;41.70;;;;;;5201408;28;20535;-49
2022/09/04 14:15:06;;;;;;;2.03;1.93;;;23.80;41.60;;;;;;5200689;28;20206;-49
2022/09/04 14:18:00;;;;;;;5.70;1.80;;;23.90;41.80;;;;;;5208525;28;20489;-50
2022/09/04 14:20:46;;;;;;;1.30;1.30;;;23.80;41.50;;;;;;5201024;28;20473;-49
2022/09/04 14:23:25;;;;;;;5.40;1.57;;;23.60;41.50;;;;;;5203937;28;20477;-50
2022/09/04 14:26:18;;;;;;;1.83;1.73;;;23.50;42.70;;;;;;5213643;28;20573;-49
2022/09/04 14:28:59;;;;;;;1.77;1.77;;;23.50;42.00;;;;;;5198321;28;20443;-53
2022/09/04 14:31:51;;;;;;;1.67;1.57;;;23.40;41.90;;;;;;5202775;28;20502;-49
2022/09/04 14:34:30;;;;;;;4.17;1.90;;;23.30;42.20;;;;;;5201657;28;20446;-50
2022/09/04 14:37:23;;;;;;;1.80;1.70;;;23.30;42.70;;;;;;5204662;28;20465;-50
2022/09/04 14:40:02;;;;;;;3.70;1.40;;;23.30;42.50;;;;;;5207603;28;20794;-50
2022/09/04 14:42:47;;;;;;;2.63;1.67;;;23.40;42.30;;;;;;5195336;28;20553;-49
2022/09/04 14:46:08;;;;;;;1.90;1.80;;;23.30;42.10;;;;;;5193596;28;20515;-50
2022/09/04 14:48:43;;;;;;;9.07;1.90;;;23.40;42.00;;;;;;5197170;28;20477;-50
2022/09/04 14:51:15;;;;;;;3.10;1.73;;;23.60;42.50;;;;;;5201017;28;20446;-50
2022/09/04 14:53:51;;;;;;;1.73;1.63;;;23.80;42.40;;;;;;5202610;28;20533;-49